Garden City, Kansas
Current Conditions -  °F | °C
As of 1:54 PM on Wednesday 26 Nov 2014 (Local Time) from KGCK Reporting Station
Clear Clear  
Wind Chill: 37°   Ceiling: Unl
Heat Index: 44°   Visibility: 10mi
Dew Point: 21°   Wind: 16mph
Humidity: 40%   Direction: 350°N
Pressure: 30.26"   Gusts: 25mph
Location:  37.97°N, 100.87°W
Report Text: KGCK 261954Z 35014G22KT 10SM CLR 07/M06 A3026 RMK AO2 SLP256 T00671061
Loading
Personal Weather Stations






























Interactive Weather Map New forecast layout! Learn more

10-Day Weather Forecast

Advertisements
Track Severe Weather on mobile